Time,TemperatureF,DewpointF,PressureIn,WindDirection,WindDirectionDegrees,WindSpeedMPH,WindSpeedGustMPH,Humidity,HourlyPrecipIn,Conditions,Clouds,dailyrainin,SolarRadiationWatts/m^2,SoftwareType,DateUTC
2013-03-20 00:00:00,42.2,41.4,29.62,North,360,0.0,0.0,97,0.05,,---,0.01,0.00,VWS V14.01,2013-03-20 07:00:00,
2013-03-20 00:05:00,42.2,41.4,29.62,SSW,202,0.0,0.0,97,0.06,,---,0.02,0.00,VWS V14.01,2013-03-20 07:05:00,
2013-03-20 00:10:00,42.3,41.5,29.61,SSW,200,0.0,0.0,97,0.06,,---,0.02,0.00,VWS V14.01,2013-03-20 07:10:00,
2013-03-20 00:15:00,42.4,41.6,29.61,SSW,202,0.0,0.0,97,0.06,,---,0.03,0.00,VWS V14.01,2013-03-20 07:15:00,
2013-03-20 00:20:00,42.5,42.0,29.61,SSW,202,0.0,0.0,98,0.06,,---,0.03,0.00,VWS V14.01,2013-03-20 07:20:00,
2013-03-20 00:25:00,42.6,42.1,29.61,ESE,107,2.0,2.0,98,0.07,,---,0.04,0.00,VWS V14.01,2013-03-20 07:25:00,
2013-03-20 00:30:00,42.8,42.3,29.61,East,84,0.0,1.0,98,0.08,,---,0.05,0.00,VWS V14.01,2013-03-20 07:30:00,
2013-03-20 00:35:00,43.0,42.5,29.61,East,83,0.0,0.0,98,0.08,,---,0.06,0.00,VWS V14.01,2013-03-20 07:35:00,
2013-03-20 00:40:00,43.1,42.6,29.60,East,85,0.0,0.0,98,0.07,,---,0.06,0.00,VWS V14.01,2013-03-20 07:40:00,
2013-03-20 00:45:00,42.8,42.3,29.61,East,83,0.0,0.0,98,0.08,,---,0.07,0.00,VWS V14.01,2013-03-20 07:45:00,
2013-03-20 00:50:00,42.7,41.9,29.60,East,85,0.0,0.0,97,0.09,,---,0.08,0.00,VWS V14.01,2013-03-20 07:50:00,
2013-03-20 00:55:00,42.7,42.2,29.61,East,84,0.0,0.0,98,0.09,,---,0.09,0.00,VWS V14.01,2013-03-20 07:55:00,
2013-03-20 01:00:00,42.8,42.3,29.60,East,85,0.0,1.0,98,0.10,,---,0.10,0.00,VWS V14.01,2013-03-20 08:00:00,
2013-03-20 01:05:00,43.1,42.6,29.59,ENE,57,1.0,2.0,98,0.10,,---,0.11,0.00,VWS V14.01,2013-03-20 08:05:00,
2013-03-20 01:10:00,43.4,42.9,29.59,East,86,0.0,2.0,98,0.09,,---,0.11,0.00,VWS V14.01,2013-03-20 08:10:00,
2013-03-20 01:15:00,43.7,43.2,29.59,ENE,70,1.0,2.0,98,0.10,,---,0.12,0.00,VWS V14.01,2013-03-20 08:15:00,
2013-03-20 01:20:00,43.8,43.3,29.59,East,82,0.0,2.0,98,0.10,,---,0.13,0.00,VWS V14.01,2013-03-20 08:20:00,
2013-03-20 01:25:00,44.0,43.5,29.59,East,86,0.0,2.0,98,0.10,,---,0.14,0.00,VWS V14.01,2013-03-20 08:25:00,
2013-03-20 01:30:00,44.1,43.6,29.58,East,84,1.0,3.0,98,0.10,,---,0.15,0.00,VWS V14.01,2013-03-20 08:30:00,
2013-03-20 01:35:00,44.1,43.6,29.58,East,94,1.0,4.0,98,0.10,,---,0.15,0.00,VWS V14.01,2013-03-20 08:35:00,
2013-03-20 01:40:00,44.1,43.3,29.58,ESE,113,0.0,2.0,97,0.10,,---,0.16,0.00,VWS V14.01,2013-03-20 08:40:00,
2013-03-20 01:45:00,44.1,43.3,29.58,WSW,248,2.0,3.0,97,0.09,,---,0.16,0.00,VWS V14.01,2013-03-20 08:45:00,
2013-03-20 01:50:00,44.0,43.2,29.57,North,360,0.0,2.0,97,0.10,,---,0.17,0.00,VWS V14.01,2013-03-20 08:50:00,
2013-03-20 01:55:00,44.0,43.5,29.57,NNW,339,1.0,1.0,98,0.09,,---,0.17,0.00,VWS V14.01,2013-03-20 08:55:00,
2013-03-20 02:00:00,44.0,43.5,29.56,East,87,0.0,2.0,98,0.09,,---,0.18,0.00,VWS V14.01,2013-03-20 09:00:00,
2013-03-20 02:05:00,44.3,43.8,29.56,East,96,2.0,2.0,98,0.08,,---,0.18,0.00,VWS V14.01,2013-03-20 09:05:00,
2013-03-20 02:10:00,44.6,44.1,29.56,East,99,0.0,4.0,98,0.07,,---,0.18,0.00,VWS V14.01,2013-03-20 09:10:00,
2013-03-20 02:15:00,44.7,43.9,29.56,ENE,75,0.0,2.0,97,0.07,,---,0.19,0.00,VWS V14.01,2013-03-20 09:15:00,
2013-03-20 02:20:00,44.8,44.0,29.56,East,89,1.0,3.0,97,0.06,,---,0.19,0.00,VWS V14.01,2013-03-20 09:20:00,
2013-03-20 02:25:00,44.9,44.1,29.55,East,92,1.0,3.0,97,0.06,,---,0.20,0.00,VWS V14.01,2013-03-20 09:25:00,
2013-03-20 02:30:00,45.0,44.2,29.55,East,94,0.0,3.0,97,0.06,,---,0.20,0.00,VWS V14.01,2013-03-20 09:30:00,
2013-03-20 02:35:00,45.1,44.3,29.54,NE,48,3.0,3.0,97,0.05,,---,0.20,0.00,VWS V14.01,2013-03-20 09:35:00,
2013-03-20 02:40:00,45.1,44.3,29.54,East,98,0.0,2.0,97,0.05,,---,0.20,0.00,VWS V14.01,2013-03-20 09:40:00,
2013-03-20 02:45:00,45.0,44.2,29.53,East,88,3.0,3.0,97,0.04,,---,0.20,0.00,VWS V14.01,2013-03-20 09:45:00,
2013-03-20 02:50:00,45.1,44.3,29.53,East,86,0.0,2.0,97,0.04,,---,0.20,0.00,VWS V14.01,2013-03-20 09:50:00,
2013-03-20 02:55:00,45.2,44.4,29.53,ESE,111,2.0,5.0,97,0.03,,---,0.20,0.00,VWS V14.01,2013-03-20 09:55:00,
2013-03-20 03:00:00,45.2,44.4,29.52,ENE,78,2.0,3.0,97,0.04,,---,0.21,0.00,VWS V14.01,2013-03-20 10:00:00,
2013-03-20 03:05:00,45.3,44.5,29.52,ESE,103,1.0,3.0,97,0.03,,---,0.21,0.00,VWS V14.01,2013-03-20 10:05:00,
2013-03-20 03:10:00,45.5,44.4,29.52,ESE,105,0.0,2.0,96,0.03,,---,0.21,0.00,VWS V14.01,2013-03-20 10:10:00,
2013-03-20 03:15:00,45.7,44.9,29.51,East,91,0.0,5.0,97,0.02,,---,0.21,0.00,VWS V14.01,2013-03-20 10:15:00,
2013-03-20 03:20:00,45.8,44.7,29.51,ENE,63,3.0,4.0,96,0.02,,---,0.21,0.00,VWS V14.01,2013-03-20 10:20:00,
2013-03-20 03:25:00,46.0,44.9,29.51,ENE,72,0.0,3.0,96,0.01,,---,0.21,0.00,VWS V14.01,2013-03-20 10:25:00,
2013-03-20 03:30:00,46.1,45.0,29.51,ENE,74,0.0,2.0,96,0.01,,---,0.21,0.00,VWS V14.01,2013-03-20 10:30:00,
2013-03-20 03:35:00,45.9,44.8,29.51,NE,44,0.0,2.0,96,0.01,,---,0.21,0.00,VWS V14.01,2013-03-20 10:35:00,
2013-03-20 03:40:00,45.6,44.5,29.50,NE,56,0.0,2.0,96,0.01,,---,0.21,0.00,VWS V14.01,2013-03-20 10:40:00,
2013-03-20 03:45:00,45.4,44.3,29.50,ESE,103,0.0,4.0,96,0.01,,---,0.21,0.00,VWS V14.01,2013-03-20 10:45:00,
2013-03-20 03:50:00,45.3,44.2,29.50,NNE,29,3.0,3.0,96,0.01,,---,0.21,0.00,VWS V14.01,2013-03-20 10:50:00,
2013-03-20 03:55:00,45.2,44.1,29.50,NE,45,1.0,4.0,96,0.01,,---,0.21,0.00,VWS V14.01,2013-03-20 10:55:00,
2013-03-20 04:00:00,45.4,44.6,29.50,ENE,57,0.0,2.0,97,0.00,,---,0.21,0.00,VWS V14.01,2013-03-20 11:00:00,
2013-03-20 04:05:00,46.0,45.2,29.49,NE,42,0.0,2.0,97,0.00,,---,0.21,0.00,VWS V14.01,2013-03-20 11:05:00,
2013-03-20 04:10:00,46.9,45.8,29.49,South,177,0.0,2.0,96,0.00,,---,0.21,0.00,VWS V14.01,2013-03-20 11:10:00,
2013-03-20 04:15:00,47.2,45.8,29.49,South,190,0.0,4.0,95,0.00,,---,0.21,0.00,VWS V14.01,2013-03-20 11:15:00,
2013-03-20 04:20:00,47.5,45.9,29.49,ENE,65,0.0,2.0,94,0.00,,---,0.21,0.00,VWS V14.01,2013-03-20 11:20:00,
2013-03-20 04:25:00,47.8,45.9,29.49,South,177,0.0,3.0,93,0.00,,---,0.21,0.00,VWS V14.01,2013-03-20 11:25:00,
2013-03-20 04:30:00,48.2,45.7,29.49,SE,143,0.0,4.0,91,0.01,,---,0.22,0.00,VWS V14.01,2013-03-20 11:30:00,
2013-03-20 04:35:00,48.5,46.0,29.48,South,186,3.0,5.0,91,0.01,,---,0.22,0.00,VWS V14.01,2013-03-20 11:35:00,
2013-03-20 04:40:00,48.6,46.1,29.48,South,175,2.0,6.0,91,0.01,,---,0.22,0.00,VWS V14.01,2013-03-20 11:40:00,
2013-03-20 04:45:00,48.5,46.3,29.47,South,175,0.0,0.0,92,0.02,,---,0.23,0.00,VWS V14.01,2013-03-20 11:45:00,
2013-03-20 04:50:00,48.3,46.1,29.47,SSW,205,0.0,5.0,92,0.02,,---,0.23,0.00,VWS V14.01,2013-03-20 11:50:00,
2013-03-20 04:55:00,48.4,46.5,29.47,SSW,198,1.0,4.0,93,0.03,,---,0.24,0.00,VWS V14.01,2013-03-20 11:55:00,
2013-03-20 05:00:00,48.4,46.5,29.47,SSE,167,0.0,5.0,93,0.03,,---,0.24,0.00,VWS V14.01,2013-03-20 12:00:00,
2013-03-20 05:05:00,48.2,46.6,29.46,SSE,167,0.0,1.0,94,0.04,,---,0.25,0.00,VWS V14.01,2013-03-20 12:05:00,
2013-03-20 05:10:00,47.9,46.3,29.46,South,172,2.0,2.0,94,0.05,,---,0.26,0.00,VWS V14.01,2013-03-20 12:10:00,
2013-03-20 05:15:00,47.8,46.4,29.45,SSE,149,0.0,0.0,95,0.06,,---,0.27,0.00,VWS V14.01,2013-03-20 12:15:00,
2013-03-20 05:20:00,47.8,46.7,29.45,SSE,147,0.0,1.0,96,0.06,,---,0.27,0.00,VWS V14.01,2013-03-20 12:20:00,
2013-03-20 05:25:00,47.9,46.8,29.45,SSE,149,0.0,0.0,96,0.06,,---,0.27,0.00,VWS V14.01,2013-03-20 12:25:00,
2013-03-20 05:30:00,47.8,46.7,29.45,SSE,149,1.0,1.0,96,0.06,,---,0.27,0.00,VWS V14.01,2013-03-20 12:30:00,
2013-03-20 05:35:00,47.9,47.1,29.45,SE,146,0.0,1.0,97,0.06,,---,0.28,0.00,VWS V14.01,2013-03-20 12:35:00,
2013-03-20 05:40:00,47.8,47.0,29.45,SSE,148,0.0,0.0,97,0.07,,---,0.29,0.00,VWS V14.01,2013-03-20 12:40:00,
2013-03-20 05:45:00,47.7,46.9,29.45,SE,146,0.0,1.0,97,0.07,,---,0.30,0.00,VWS V14.01,2013-03-20 12:45:00,
2013-03-20 05:50:00,47.5,46.4,29.45,East,97,2.0,3.0,96,0.08,,---,0.31,0.00,VWS V14.01,2013-03-20 12:50:00,
2013-03-20 05:55:00,47.1,46.0,29.44,East,97,3.0,3.0,96,0.09,,---,0.32,0.00,VWS V14.01,2013-03-20 12:55:00,
2013-03-20 06:00:00,46.7,45.6,29.44,East,83,0.0,2.0,96,0.08,,---,0.32,0.00,VWS V14.01,2013-03-20 13:00:00,
2013-03-20 06:05:00,46.4,45.3,29.44,East,84,2.0,4.0,96,0.08,,---,0.33,0.00,VWS V14.01,2013-03-20 13:05:00,
2013-03-20 06:10:00,46.2,45.1,29.44,East,82,1.0,4.0,96,0.09,,---,0.35,0.00,VWS V14.01,2013-03-20 13:10:00,
2013-03-20 06:15:00,46.1,45.3,29.43,East,88,3.0,5.0,97,0.10,,---,0.36,0.00,VWS V14.01,2013-03-20 13:15:00,
2013-03-20 06:20:00,46.1,45.3,29.43,East,92,0.0,3.0,97,0.09,,---,0.36,0.00,VWS V14.01,2013-03-20 13:20:00,
2013-03-20 06:25:00,46.2,45.4,29.43,East,92,1.0,2.0,97,0.09,,---,0.36,0.00,VWS V14.01,2013-03-20 13:25:00,
2013-03-20 06:30:00,46.1,45.3,29.43,ENE,76,0.0,3.0,97,0.09,,---,0.36,0.00,VWS V14.01,2013-03-20 13:30:00,
2013-03-20 06:35:00,46.2,45.4,29.43,East,89,2.0,5.0,97,0.09,,---,0.37,0.00,VWS V14.01,2013-03-20 13:35:00,
2013-03-20 06:40:00,46.4,45.6,29.43,ESE,102,1.0,7.0,97,0.09,,---,0.37,0.00,VWS V14.01,2013-03-20 13:40:00,
2013-03-20 06:45:00,46.5,45.7,29.43,East,96,0.0,5.0,97,0.09,,---,0.38,0.00,VWS V14.01,2013-03-20 13:45:00,
2013-03-20 06:50:00,46.6,45.8,29.42,East,82,0.0,3.0,97,0.08,,---,0.38,0.00,VWS V14.01,2013-03-20 13:50:00,
2013-03-20 06:55:00,47.0,46.2,29.42,East,100,0.0,2.0,97,0.07,,---,0.38,0.00,VWS V14.01,2013-03-20 13:55:00,
2013-03-20 07:00:00,47.0,46.2,29.42,East,93,0.0,3.0,97,0.07,,---,0.39,0.00,VWS V14.01,2013-03-20 14:00:00,
2013-03-20 07:05:00,47.2,46.4,29.42,SE,146,4.0,4.0,97,0.07,,---,0.39,0.00,VWS V14.01,2013-03-20 14:05:00,
2013-03-20 07:10:00,47.6,46.8,29.42,ESE,113,0.0,1.0,97,0.05,,---,0.39,0.00,VWS V14.01,2013-03-20 14:10:00,
2013-03-20 07:15:00,47.6,46.8,29.42,ESE,113,0.0,1.0,97,0.04,,---,0.39,0.00,VWS V14.01,2013-03-20 14:15:00,
2013-03-20 07:20:00,47.7,46.9,29.42,SSE,165,4.0,4.0,97,0.04,,---,0.40,0.00,VWS V14.01,2013-03-20 14:20:00,
2013-03-20 07:25:00,48.5,47.4,29.42,SE,143,0.0,5.0,96,0.04,,---,0.40,7.00,VWS V14.01,2013-03-20 14:25:00,
2013-03-20 07:30:00,48.8,47.4,29.41,SSW,197,1.0,3.0,95,0.05,,---,0.41,7.00,VWS V14.01,2013-03-20 14:30:00,
2013-03-20 07:35:00,49.1,47.7,29.42,SW,236,4.0,5.0,95,0.05,,---,0.41,0.00,VWS V14.01,2013-03-20 14:35:00,
2013-03-20 07:40:00,49.3,47.7,29.42,SSW,198,1.0,6.0,94,0.05,,---,0.42,0.00,VWS V14.01,2013-03-20 14:40:00,
2013-03-20 07:45:00,49.1,47.5,29.42,SSW,200,1.0,1.0,94,0.06,,---,0.43,0.00,VWS V14.01,2013-03-20 14:45:00,
2013-03-20 07:50:00,49.1,47.7,29.42,South,174,3.0,6.0,95,0.06,,---,0.44,7.00,VWS V14.01,2013-03-20 14:50:00,
2013-03-20 07:55:00,49.5,47.8,29.42,SSW,201,7.0,12.0,94,0.06,,---,0.44,7.00,VWS V14.01,2013-03-20 14:55:00,
2013-03-20 08:00:00,50.1,48.2,29.42,SSE,156,9.0,11.0,93,0.06,,---,0.44,16.00,VWS V14.01,2013-03-20 15:00:00,
2013-03-20 08:05:00,50.3,48.1,29.42,SSW,198,7.0,11.0,92,0.05,,---,0.44,25.00,VWS V14.01,2013-03-20 15:05:00,
2013-03-20 08:10:00,50.4,48.2,29.42,South,187,4.0,10.0,92,0.05,,---,0.44,30.00,VWS V14.01,2013-03-20 15:10:00,
2013-03-20 08:15:00,50.5,48.3,29.42,SSW,192,4.0,18.0,92,0.05,,---,0.44,19.00,VWS V14.01,2013-03-20 15:15:00,
2013-03-20 08:20:00,50.6,48.4,29.42,North,360,17.0,22.0,92,0.05,,---,0.45,25.00,VWS V14.01,2013-03-20 15:20:00,
2013-03-20 08:25:00,50.7,48.5,29.42,SSW,204,7.0,18.0,92,0.05,,---,0.45,28.00,VWS V14.01,2013-03-20 15:25:00,
2013-03-20 08:30:00,50.7,48.5,29.43,South,186,11.0,16.0,92,0.05,,---,0.45,23.00,VWS V14.01,2013-03-20 15:30:00,
2013-03-20 08:35:00,50.6,48.4,29.43,South,190,9.0,18.0,92,0.04,,---,0.45,39.00,VWS V14.01,2013-03-20 15:35:00,
2013-03-20 08:40:00,50.5,48.3,29.43,South,190,6.0,13.0,92,0.05,,---,0.46,44.00,VWS V14.01,2013-03-20 15:40:00,
2013-03-20 08:45:00,50.3,48.4,29.43,SSW,211,5.0,13.0,93,0.04,,---,0.46,46.00,VWS V14.01,2013-03-20 15:45:00,
2013-03-20 08:50:00,50.3,48.6,29.43,SSW,192,12.0,14.0,94,0.04,,---,0.47,62.00,VWS V14.01,2013-03-20 15:50:00,
2013-03-20 08:55:00,50.4,48.7,29.43,SSE,163,5.0,13.0,94,0.03,,---,0.47,77.00,VWS V14.01,2013-03-20 15:55:00,
2013-03-20 09:00:00,50.6,48.7,29.42,SSW,198,6.0,16.0,93,0.03,,---,0.47,84.00,VWS V14.01,2013-03-20 16:00:00,
2013-03-20 09:05:00,50.7,48.5,29.43,SSW,208,16.0,16.0,92,0.03,,---,0.47,49.00,VWS V14.01,2013-03-20 16:05:00,
2013-03-20 09:10:00,50.7,48.2,29.43,SW,217,12.0,19.0,91,0.03,,---,0.47,49.00,VWS V14.01,2013-03-20 16:10:00,
2013-03-20 09:15:00,50.6,48.4,29.43,SSW,205,10.0,13.0,92,0.03,,---,0.47,44.00,VWS V14.01,2013-03-20 16:15:00,
2013-03-20 09:20:00,50.4,48.5,29.43,South,180,7.0,15.0,93,0.03,,---,0.47,46.00,VWS V14.01,2013-03-20 16:20:00,
2013-03-20 09:25:00,50.2,48.3,29.44,SW,225,11.0,16.0,93,0.02,,---,0.47,26.00,VWS V14.01,2013-03-20 16:25:00,
2013-03-20 09:30:00,49.9,48.2,29.45,SSW,192,8.0,16.0,94,0.03,,---,0.48,56.00,VWS V14.01,2013-03-20 16:30:00,
2013-03-20 09:35:00,50.1,48.2,29.46,SW,223,9.0,21.0,93,0.03,,---,0.48,125.00,VWS V14.01,2013-03-20 16:35:00,
2013-03-20 09:40:00,50.4,48.2,29.46,SW,234,10.0,19.0,92,0.03,,---,0.48,125.00,VWS V14.01,2013-03-20 16:40:00,
2013-03-20 09:45:00,50.3,47.8,29.47,SSW,197,12.0,19.0,91,0.02,,---,0.48,114.00,VWS V14.01,2013-03-20 16:45:00,
2013-03-20 09:50:00,50.3,47.8,29.47,SW,230,8.0,22.0,91,0.02,,---,0.48,65.00,VWS V14.01,2013-03-20 16:50:00,
2013-03-20 09:55:00,50.0,47.5,29.48,SW,218,16.0,22.0,91,0.01,,---,0.48,174.00,VWS V14.01,2013-03-20 16:55:00,
2013-03-20 10:00:00,49.6,46.8,29.49,SSW,204,15.0,20.0,90,0.01,,---,0.48,179.00,VWS V14.01,2013-03-20 17:00:00,
2013-03-20 10:05:00,49.0,45.9,29.49,SW,227,13.0,21.0,89,0.01,,---,0.48,130.00,VWS V14.01,2013-03-20 17:05:00,
2013-03-20 10:10:00,48.5,45.4,29.50,SSW,209,17.0,21.0,89,0.01,,---,0.48,97.00,VWS V14.01,2013-03-20 17:10:00,
2013-03-20 10:15:00,48.3,45.5,29.50,SSW,205,15.0,17.0,90,0.01,,---,0.48,172.00,VWS V14.01,2013-03-20 17:15:00,
2013-03-20 10:20:00,48.5,45.7,29.51,SW,225,25.0,25.0,90,0.01,,---,0.48,243.00,VWS V14.01,2013-03-20 17:20:00,
2013-03-20 10:25:00,48.7,45.3,29.52,South,178,9.0,18.0,88,0.01,,---,0.48,220.00,VWS V14.01,2013-03-20 17:25:00,
2013-03-20 10:30:00,48.7,45.3,29.52,WSW,240,16.0,19.0,88,0.01,,---,0.48,207.00,VWS V14.01,2013-03-20 17:30:00,
2013-03-20 10:35:00,49.0,45.6,29.53,South,184,9.0,14.0,88,0.00,,---,0.48,153.00,VWS V14.01,2013-03-20 17:35:00,
2013-03-20 10:40:00,49.2,44.9,29.53,SW,223,10.0,22.0,85,0.00,,---,0.48,464.00,VWS V14.01,2013-03-20 17:40:00,
2013-03-20 10:45:00,49.3,44.4,29.53,SW,226,16.0,24.0,83,0.00,,---,0.48,489.00,VWS V14.01,2013-03-20 17:45:00,
2013-03-20 10:50:00,49.2,44.0,29.54,South,184,11.0,17.0,82,0.00,,---,0.48,295.00,VWS V14.01,2013-03-20 17:50:00,
2013-03-20 10:55:00,49.1,43.5,29.54,SSW,198,16.0,16.0,81,0.00,,---,0.48,172.00,VWS V14.01,2013-03-20 17:55:00,
2013-03-20 11:00:00,48.8,43.6,29.54,SSW,209,13.0,17.0,82,0.00,,---,0.48,557.00,VWS V14.01,2013-03-20 18:00:00,
2013-03-20 11:05:00,49.0,43.8,29.55,South,185,11.0,21.0,82,0.00,,---,0.48,563.00,VWS V14.01,2013-03-20 18:05:00,
2013-03-20 11:10:00,48.7,43.5,29.55,SSW,200,18.0,21.0,82,0.00,,---,0.48,109.00,VWS V14.01,2013-03-20 18:10:00,
2013-03-20 11:15:00,47.9,43.0,29.56,South,190,6.0,19.0,83,0.00,,---,0.48,130.00,VWS V14.01,2013-03-20 18:15:00,
2013-03-20 11:20:00,47.5,42.6,29.56,South,184,21.0,21.0,83,0.00,,---,0.48,116.00,VWS V14.01,2013-03-20 18:20:00,
2013-03-20 11:25:00,47.3,42.7,29.56,South,180,14.0,19.0,84,0.00,,---,0.48,232.00,VWS V14.01,2013-03-20 18:25:00,
2013-03-20 11:30:00,47.8,42.9,29.57,South,178,12.0,20.0,83,0.00,,---,0.48,668.00,VWS V14.01,2013-03-20 18:30:00,
2013-03-20 11:35:00,48.1,43.2,29.57,SW,221,14.0,19.0,83,0.00,,---,0.48,635.00,VWS V14.01,2013-03-20 18:35:00,
2013-03-20 11:40:00,48.3,43.1,29.57,SW,226,8.0,19.0,82,0.00,,---,0.48,622.00,VWS V14.01,2013-03-20 18:40:00,
2013-03-20 11:45:00,48.5,43.0,29.57,SW,223,13.0,21.0,81,0.00,,---,0.48,629.00,VWS V14.01,2013-03-20 18:45:00,
2013-03-20 11:50:00,48.7,43.1,29.58,SSW,195,10.0,20.0,81,0.00,,---,0.48,638.00,VWS V14.01,2013-03-20 18:50:00,
2013-03-20 11:55:00,49.0,42.8,29.58,South,172,14.0,28.0,79,0.00,,---,0.48,679.00,VWS V14.01,2013-03-20 18:55:00,
2013-03-20 12:00:00,49.3,43.4,29.58,SSW,196,10.0,19.0,80,0.00,,---,0.48,287.00,VWS V14.01,2013-03-20 19:00:00,
2013-03-20 12:05:00,49.7,43.5,29.59,South,186,16.0,21.0,79,0.00,,---,0.48,749.00,VWS V14.01,2013-03-20 19:05:00,
2013-03-20 12:10:00,49.7,43.5,29.59,WSW,238,17.0,17.0,79,0.00,,---,0.48,455.00,VWS V14.01,2013-03-20 19:10:00,
2013-03-20 12:15:00,49.7,43.5,29.59,SW,217,11.0,18.0,79,0.00,,---,0.48,223.00,VWS V14.01,2013-03-20 19:15:00,
2013-03-20 12:20:00,49.7,43.1,29.59,South,178,16.0,18.0,78,0.00,,---,0.48,223.00,VWS V14.01,2013-03-20 19:20:00,
2013-03-20 12:21:00,49.8,43.6,29.60,SSW,207,15.0,20.0,79,0.00,,---,0.48,290.00,VWS V14.01,2013-03-20 19:21:00,
2013-03-20 12:25:00,49.7,42.8,29.60,SW,222,13.0,22.0,77,0.00,,---,0.48,330.00,VWS V14.01,2013-03-20 19:25:00,
2013-03-20 12:26:00,50.0,44.7,29.60,South,187,18.0,18.0,82,0.00,,---,0.48,330.00,VWS V14.01,2013-03-20 19:26:00,
2013-03-20 12:30:00,50.3,44.0,29.60,South,177,16.0,18.0,79,0.00,,---,0.48,290.00,VWS V14.01,2013-03-20 19:30:00,
2013-03-20 12:31:00,50.1,43.5,29.60,West,267,14.0,24.0,78,0.00,,---,0.48,401.00,VWS V14.01,2013-03-20 19:31:00,
2013-03-20 12:35:00,50.0,43.4,29.60,SW,222,13.0,24.0,78,0.00,,---,0.48,401.00,VWS V14.01,2013-03-20 19:35:00,
2013-03-20 12:36:00,49.9,43.0,29.61,SW,229,9.0,21.0,77,0.00,,---,0.48,427.00,VWS V14.01,2013-03-20 19:36:00,
2013-03-20 12:40:00,49.9,43.3,29.61,SW,230,18.0,21.0,78,0.00,,---,0.48,403.00,VWS V14.01,2013-03-20 19:40:00,
2013-03-20 12:41:00,49.6,42.7,29.61,SSW,205,20.0,21.0,77,0.00,,---,0.48,113.00,VWS V14.01,2013-03-20 19:41:00,
2013-03-20 12:45:00,49.5,42.9,29.61,SW,219,12.0,21.0,78,0.00,,---,0.48,104.00,VWS V14.01,2013-03-20 19:45:00,
2013-03-20 12:46:00,49.0,41.8,29.61,SW,221,21.0,25.0,76,0.00,,---,0.48,116.00,VWS V14.01,2013-03-20 19:46:00,
2013-03-20 12:50:00,48.8,41.9,29.61,WSW,245,10.0,25.0,77,0.00,,---,0.48,148.00,VWS V14.01,2013-03-20 19:50:00,
2013-03-20 12:51:00,48.3,42.4,29.62,WSW,249,8.0,18.0,80,0.00,,---,0.48,156.00,VWS V14.01,2013-03-20 19:51:00,
2013-03-20 12:55:00,48.2,42.7,29.62,SW,236,11.0,18.0,81,0.00,,---,0.48,165.00,VWS V14.01,2013-03-20 19:55:00,
2013-03-20 12:56:00,48.0,42.5,29.62,SW,228,8.0,20.0,81,0.00,,---,0.48,105.00,VWS V14.01,2013-03-20 19:56:00,
2013-03-20 13:00:00,47.9,42.0,29.62,SSW,202,7.0,20.0,80,0.00,,---,0.48,81.00,VWS V14.01,2013-03-20 20:00:00,
2013-03-20 13:01:00,48.0,41.8,29.63,SSW,209,12.0,26.0,79,0.00,,---,0.48,40.00,VWS V14.01,2013-03-20 20:01:00,
2013-03-20 13:05:00,47.9,41.7,29.62,SW,219,16.0,26.0,79,0.00,,---,0.48,35.00,VWS V14.01,2013-03-20 20:05:00,
2013-03-20 13:06:00,46.9,41.4,29.63,WSW,248,19.0,22.0,81,0.01,,---,0.49,179.00,VWS V14.01,2013-03-20 20:06:00,
2013-03-20 13:10:00,46.6,41.4,29.63,WSW,237,10.0,22.0,82,0.01,,---,0.49,179.00,VWS V14.01,2013-03-20 20:10:00,
2013-03-20 13:11:00,46.4,42.1,29.63,WNW,289,7.0,17.0,85,0.01,,---,0.49,332.00,VWS V14.01,2013-03-20 20:11:00,
2013-03-20 13:15:00,46.5,42.5,29.63,South,176,5.0,17.0,86,0.01,,---,0.49,332.00,VWS V14.01,2013-03-20 20:15:00,
2013-03-20 13:16:00,47.3,43.0,29.63,SW,217,8.0,15.0,85,0.01,,---,0.49,779.00,VWS V14.01,2013-03-20 20:16:00,
2013-03-20 13:20:00,47.6,43.3,29.63,WSW,239,13.0,15.0,85,0.01,,---,0.49,756.00,VWS V14.01,2013-03-20 20:20:00,
2013-03-20 13:21:00,48.4,42.8,29.63,SW,234,13.0,20.0,81,0.01,,---,0.49,788.00,VWS V14.01,2013-03-20 20:21:00,
2013-03-20 13:25:00,48.6,43.0,29.63,WSW,241,13.0,20.0,81,0.01,,---,0.49,772.00,VWS V14.01,2013-03-20 20:25:00,
2013-03-20 13:26:00,48.8,42.6,29.63,SW,229,6.0,23.0,79,0.01,,---,0.49,318.00,VWS V14.01,2013-03-20 20:26:00,
2013-03-20 13:30:00,48.8,42.6,29.63,SSW,208,7.0,23.0,79,0.01,,---,0.49,267.00,VWS V14.01,2013-03-20 20:30:00,
2013-03-20 13:31:00,49.0,43.4,29.64,SW,230,13.0,14.0,81,0.01,,---,0.49,241.00,VWS V14.01,2013-03-20 20:31:00,
2013-03-20 13:35:00,49.0,43.1,29.64,SSW,196,12.0,14.0,80,0.01,,---,0.49,506.00,VWS V14.01,2013-03-20 20:35:00,
2013-03-20 13:36:00,48.5,42.3,29.64,SW,223,13.0,20.0,79,0.01,,---,0.49,309.00,VWS V14.01,2013-03-20 20:36:00,
2013-03-20 13:40:00,48.4,42.2,29.64,SSW,206,5.0,20.0,79,0.01,,---,0.49,362.00,VWS V14.01,2013-03-20 20:40:00,
2013-03-20 13:41:00,47.9,42.7,29.65,SSW,207,11.0,19.0,82,0.01,,---,0.49,768.00,VWS V14.01,2013-03-20 20:41:00,
2013-03-20 13:45:00,47.8,42.6,29.65,SSW,193,12.0,30.0,82,0.01,,---,0.49,768.00,VWS V14.01,2013-03-20 20:45:00,
2013-03-20 13:46:00,47.2,42.0,29.65,SSW,195,13.0,25.0,82,0.01,,---,0.49,258.00,VWS V14.01,2013-03-20 20:46:00,
2013-03-20 13:50:00,47.2,42.6,29.65,South,186,14.0,25.0,84,0.01,,---,0.49,258.00,VWS V14.01,2013-03-20 20:50:00,
2013-03-20 13:51:00,47.2,42.6,29.65,SW,220,10.0,15.0,84,0.01,,---,0.49,186.00,VWS V14.01,2013-03-20 20:51:00,
2013-03-20 13:55:00,47.2,42.6,29.65,SW,228,13.0,21.0,84,0.01,,---,0.49,186.00,VWS V14.01,2013-03-20 20:55:00,
2013-03-20 13:56:00,48.0,43.4,29.66,SSW,209,13.0,18.0,84,0.01,,---,0.49,800.00,VWS V14.01,2013-03-20 20:56:00,
2013-03-20 14:00:00,48.0,43.1,29.66,South,186,13.0,18.0,83,0.01,,---,0.49,842.00,VWS V14.01,2013-03-20 21:00:00,
2013-03-20 14:01:00,48.1,42.9,29.66,SSW,193,10.0,20.0,82,0.01,,---,0.49,670.00,VWS V14.01,2013-03-20 21:01:00,
2013-03-20 14:05:00,48.0,42.8,29.66,South,190,13.0,21.0,82,0.01,,---,0.49,731.00,VWS V14.01,2013-03-20 21:05:00,
2013-03-20 14:06:00,47.6,42.4,29.66,SSW,198,17.0,21.0,82,0.01,,---,0.49,336.00,VWS V14.01,2013-03-20 21:06:00,
2013-03-20 14:10:00,47.5,42.6,29.66,SW,234,10.0,21.0,83,0.01,,---,0.49,316.00,VWS V14.01,2013-03-20 21:10:00,
2013-03-20 14:11:00,47.2,42.6,29.66,SSW,193,11.0,25.0,84,0.00,,---,0.49,506.00,VWS V14.01,2013-03-20 21:11:00,
2013-03-20 14:15:00,47.2,42.6,29.66,SSW,208,15.0,25.0,84,0.00,,---,0.49,506.00,VWS V14.01,2013-03-20 21:15:00,
2013-03-20 14:16:00,47.5,42.6,29.66,SSW,209,8.0,19.0,83,0.00,,---,0.49,357.00,VWS V14.01,2013-03-20 21:16:00,
2013-03-20 14:20:00,47.6,43.0,29.66,SSW,201,8.0,19.0,84,0.00,,---,0.49,357.00,VWS V14.01,2013-03-20 21:20:00,
2013-03-20 14:21:00,47.9,42.7,29.66,West,266,7.0,24.0,82,0.00,,---,0.49,847.00,VWS V14.01,2013-03-20 21:21:00,
2013-03-20 14:25:00,47.9,42.7,29.66,WSW,237,8.0,24.0,82,0.00,,---,0.49,847.00,VWS V14.01,2013-03-20 21:25:00,
2013-03-20 14:27:00,48.6,43.0,29.65,South,180,9.0,16.0,81,0.00,,---,0.49,847.00,VWS V14.01,2013-03-20 21:27:00,
2013-03-20 14:30:00,48.6,43.0,29.65,South,180,9.0,16.0,81,0.00,,---,0.49,847.00,VWS V14.01,2013-03-20 21:30:00,
2013-03-20 14:32:00,47.7,42.2,29.65,SSW,194,11.0,22.0,81,0.00,,---,0.49,473.00,VWS V14.01,2013-03-20 21:32:00,
2013-03-20 14:35:00,47.7,42.2,29.65,SSW,194,11.0,22.0,81,0.00,,---,0.49,473.00,VWS V14.01,2013-03-20 21:35:00,
2013-03-20 14:37:00,47.2,42.0,29.65,SSW,194,13.0,24.0,82,0.00,,---,0.49,362.00,VWS V14.01,2013-03-20 21:37:00,
2013-03-20 14:40:00,47.2,42.0,29.65,South,190,14.0,24.0,82,0.00,,---,0.49,362.00,VWS V14.01,2013-03-20 21:40:00,
2013-03-20 14:42:00,47.3,42.4,29.65,SSW,197,17.0,23.0,83,0.00,,---,0.49,385.00,VWS V14.01,2013-03-20 21:42:00,
2013-03-20 14:45:00,47.3,42.4,29.65,SSW,197,17.0,23.0,83,0.00,,---,0.49,385.00,VWS V14.01,2013-03-20 21:45:00,
2013-03-20 14:47:00,47.6,43.0,29.65,South,187,13.0,22.0,84,0.00,,---,0.49,749.00,VWS V14.01,2013-03-20 21:47:00,
2013-03-20 14:50:00,47.6,43.0,29.65,South,187,13.0,22.0,84,0.00,,---,0.49,749.00,VWS V14.01,2013-03-20 21:50:00,
2013-03-20 14:52:00,48.1,43.8,29.65,SSW,200,11.0,27.0,85,0.00,,---,0.49,687.00,VWS V14.01,2013-03-20 21:52:00,
2013-03-20 14:55:00,48.1,43.8,29.65,SSW,200,11.0,27.0,85,0.00,,---,0.49,687.00,VWS V14.01,2013-03-20 21:55:00,
2013-03-20 14:57:00,48.1,42.9,29.66,SE,142,11.0,11.0,82,0.00,,---,0.49,341.00,VWS V14.01,2013-03-20 21:57:00,
2013-03-20 15:00:00,48.1,42.9,29.66,SSW,202,9.0,22.0,82,0.00,,---,0.49,341.00,VWS V14.01,2013-03-20 22:00:00,
2013-03-20 15:02:00,48.0,42.1,29.67,SW,227,9.0,23.0,80,0.00,,---,0.49,311.00,VWS V14.01,2013-03-20 22:02:00,
2013-03-20 15:05:00,48.0,42.1,29.66,SSW,209,23.0,23.0,80,0.00,,---,0.49,311.00,VWS V14.01,2013-03-20 22:05:00,
2013-03-20 15:07:00,47.7,41.5,29.66,WSW,248,24.0,24.0,79,0.00,,---,0.49,308.00,VWS V14.01,2013-03-20 22:07:00,
2013-03-20 15:10:00,47.7,41.5,29.66,WSW,248,24.0,24.0,79,0.00,,---,0.49,308.00,VWS V14.01,2013-03-20 22:10:00,
2013-03-20 15:12:00,47.7,41.8,29.66,South,188,11.0,13.0,80,0.00,,---,0.49,330.00,VWS V14.01,2013-03-20 22:12:00,
2013-03-20 15:15:00,47.7,41.8,29.66,SSW,206,13.0,25.0,80,0.00,,---,0.49,330.00,VWS V14.01,2013-03-20 22:15:00,
2013-03-20 15:17:00,47.5,41.7,29.66,SSW,192,12.0,16.0,80,0.00,,---,0.49,290.00,VWS V14.01,2013-03-20 22:17:00,
2013-03-20 15:20:00,47.5,41.7,29.66,South,183,16.0,26.0,80,0.00,,---,0.49,290.00,VWS V14.01,2013-03-20 22:20:00,
2013-03-20 15:22:00,47.2,41.4,29.67,SW,219,14.0,14.0,80,0.00,,---,0.49,308.00,VWS V14.01,2013-03-20 22:22:00,
2013-03-20 15:25:00,47.2,41.3,29.67,SSW,202,13.0,25.0,80,0.00,,---,0.49,404.00,VWS V14.01,2013-03-20 22:25:00,
2013-03-20 15:27:00,47.4,41.5,29.67,SW,227,10.0,15.0,80,0.00,,---,0.49,353.00,VWS V14.01,2013-03-20 22:27:00,
2013-03-20 15:30:00,47.4,41.5,29.67,SSW,213,15.0,19.0,80,0.00,,---,0.49,267.00,VWS V14.01,2013-03-20 22:30:00,
2013-03-20 15:32:00,47.1,40.9,29.67,SW,225,19.0,19.0,79,0.00,,---,0.49,223.00,VWS V14.01,2013-03-20 22:32:00,
2013-03-20 15:35:00,47.1,40.9,29.67,WSW,240,19.0,19.0,79,0.00,,---,0.49,223.00,VWS V14.01,2013-03-20 22:35:00,
2013-03-20 15:37:00,47.0,41.2,29.67,SW,217,15.0,15.0,80,0.00,,---,0.49,287.00,VWS V14.01,2013-03-20 22:37:00,
2013-03-20 15:40:00,47.0,41.2,29.67,SSW,193,13.0,23.0,80,0.00,,---,0.49,287.00,VWS V14.01,2013-03-20 22:40:00,
2013-03-20 15:42:00,47.2,41.0,29.68,SSW,196,17.0,21.0,79,0.00,,---,0.49,304.00,VWS V14.01,2013-03-20 22:42:00,
2013-03-20 15:45:00,47.2,41.0,29.68,SW,234,21.0,24.0,79,0.00,,---,0.49,304.00,VWS V14.01,2013-03-20 22:45:00,
2013-03-20 15:47:00,47.2,41.0,29.69,WSW,248,14.0,14.0,79,0.00,,---,0.49,253.00,VWS V14.01,2013-03-20 22:47:00,
2013-03-20 15:50:00,47.2,41.0,29.69,SW,227,13.0,26.0,79,0.00,,---,0.49,253.00,VWS V14.01,2013-03-20 22:50:00,
2013-03-20 15:52:00,47.2,41.0,29.69,WNW,298,10.0,10.0,79,0.00,,---,0.49,246.00,VWS V14.01,2013-03-20 22:52:00,
2013-03-20 15:55:00,47.2,41.0,29.69,SSW,209,8.0,17.0,79,0.00,,---,0.49,246.00,VWS V14.01,2013-03-20 22:55:00,
2013-03-20 15:57:00,47.0,40.8,29.69,SSW,213,7.0,8.0,79,0.00,,---,0.49,272.00,VWS V14.01,2013-03-20 22:57:00,
2013-03-20 16:00:00,47.0,40.8,29.69,South,173,7.0,19.0,79,0.00,,---,0.49,274.00,VWS V14.01,2013-03-20 23:00:00,
2013-03-20 16:02:00,47.0,41.2,29.69,SW,221,17.0,17.0,80,0.00,,---,0.49,218.00,VWS V14.01,2013-03-20 23:02:00,
2013-03-20 16:05:00,47.0,41.2,29.69,SSW,199,13.0,17.0,80,0.00,,---,0.49,213.00,VWS V14.01,2013-03-20 23:05:00,
2013-03-20 16:07:00,47.0,40.5,29.69,SSW,200,9.0,17.0,78,0.00,,---,0.49,246.00,VWS V14.01,2013-03-20 23:07:00,
2013-03-20 16:10:00,47.0,40.5,29.69,SW,217,17.0,24.0,78,0.00,,---,0.49,246.00,VWS V14.01,2013-03-20 23:10:00,
2013-03-20 16:12:00,47.5,41.0,29.69,SW,215,20.0,22.0,78,0.00,,---,0.49,401.00,VWS V14.01,2013-03-20 23:12:00,
2013-03-20 16:15:00,47.5,41.3,29.69,SW,223,22.0,25.0,79,0.00,,---,0.49,401.00,VWS V14.01,2013-03-20 23:15:00,
2013-03-20 16:17:00,47.6,40.4,29.69,SW,226,14.0,17.0,76,0.00,,---,0.49,373.00,VWS V14.01,2013-03-20 23:17:00,
2013-03-20 16:20:00,47.7,40.5,29.69,SSW,210,17.0,23.0,76,0.00,,---,0.49,373.00,VWS V14.01,2013-03-20 23:20:00,
2013-03-20 16:22:00,47.7,40.2,29.70,SW,234,10.0,12.0,75,0.00,,---,0.49,265.00,VWS V14.01,2013-03-20 23:22:00,
2013-03-20 16:25:00,47.7,40.2,29.70,SSW,194,11.0,25.0,75,0.00,,---,0.49,265.00,VWS V14.01,2013-03-20 23:25:00,
2013-03-20 16:27:00,47.9,40.4,29.70,SW,216,17.0,17.0,75,0.00,,---,0.49,520.00,VWS V14.01,2013-03-20 23:27:00,
2013-03-20 16:30:00,47.9,40.4,29.70,WSW,254,11.0,21.0,75,0.00,,---,0.49,520.00,VWS V14.01,2013-03-20 23:30:00,
2013-03-20 16:32:00,48.1,40.9,29.72,South,180,15.0,22.0,76,0.00,,---,0.49,550.00,VWS V14.01,2013-03-20 23:32:00,
2013-03-20 16:35:00,48.0,40.8,29.71,SW,224,22.0,22.0,76,0.00,,---,0.49,552.00,VWS V14.01,2013-03-20 23:35:00,
2013-03-20 16:37:00,48.1,40.6,29.72,SW,215,9.0,9.0,75,0.00,,---,0.49,190.00,VWS V14.01,2013-03-20 23:37:00,
2013-03-20 16:40:00,48.1,40.6,29.72,South,184,9.0,23.0,75,0.00,,---,0.49,190.00,VWS V14.01,2013-03-20 23:40:00,
2013-03-20 16:42:00,47.7,40.2,29.72,SW,229,15.0,15.0,75,0.00,,---,0.49,288.00,VWS V14.01,2013-03-20 23:42:00,
2013-03-20 16:45:00,47.7,40.2,29.72,WSW,248,7.0,21.0,75,0.00,,---,0.49,288.00,VWS V14.01,2013-03-20 23:45:00,
2013-03-20 16:47:00,47.9,40.4,29.73,SW,222,14.0,20.0,75,0.00,,---,0.49,536.00,VWS V14.01,2013-03-20 23:47:00,
2013-03-20 16:50:00,47.9,40.4,29.73,WSW,254,18.0,21.0,75,0.00,,---,0.49,536.00,VWS V14.01,2013-03-20 23:50:00,
2013-03-20 16:52:00,48.3,40.8,29.73,South,186,18.0,18.0,75,0.00,,---,0.49,510.00,VWS V14.01,2013-03-20 23:52:00,
2013-03-20 16:55:00,48.2,40.7,29.73,West,279,11.0,20.0,75,0.00,,---,0.49,510.00,VWS V14.01,2013-03-20 23:55:00,
2013-03-20 16:57:00,48.1,40.6,29.73,SSW,192,10.0,14.0,75,0.00,,---,0.49,446.00,VWS V14.01,2013-03-20 23:57:00,
2013-03-20 17:00:00,48.2,40.3,29.73,West,261,9.0,25.0,74,0.00,,---,0.49,446.00,VWS V14.01,2013-03-21 00:00:00,
2013-03-20 17:02:00,48.3,40.8,29.73,SW,217,12.0,14.0,75,0.00,,---,0.49,434.00,VWS V14.01,2013-03-21 00:02:00,
2013-03-20 17:05:00,48.3,40.8,29.73,SW,221,8.0,20.0,75,0.00,,---,0.49,434.00,VWS V14.01,2013-03-21 00:05:00,
2013-03-20 17:07:00,48.2,40.7,29.74,SW,225,14.0,17.0,75,0.00,,---,0.49,396.00,VWS V14.01,2013-03-21 00:07:00,
2013-03-20 17:10:00,48.3,40.8,29.74,South,170,12.0,18.0,75,0.00,,---,0.49,394.00,VWS V14.01,2013-03-21 00:10:00,
2013-03-20 17:12:00,47.8,40.6,29.75,SSW,205,9.0,20.0,76,0.00,,---,0.49,132.00,VWS V14.01,2013-03-21 00:12:00,
2013-03-20 17:15:00,47.9,40.4,29.74,SSW,202,15.0,21.0,75,0.00,,---,0.49,113.00,VWS V14.01,2013-03-21 00:15:00,
2013-03-20 17:17:00,47.5,40.0,29.74,SSW,199,10.0,12.0,75,0.00,,---,0.49,84.00,VWS V14.01,2013-03-21 00:17:00,
2013-03-20 17:20:00,47.6,40.4,29.75,South,183,12.0,22.0,76,0.00,,---,0.49,116.00,VWS V14.01,2013-03-21 00:20:00,
2013-03-20 17:23:00,47.5,40.0,29.75,WSW,241,15.0,15.0,75,0.00,,---,0.49,134.00,VWS V14.01,2013-03-21 00:23:00,
2013-03-20 17:25:00,47.5,40.0,29.75,SSW,209,9.0,26.0,75,0.00,,---,0.49,134.00,VWS V14.01,2013-03-21 00:25:00,
2013-03-20 17:28:00,47.5,39.6,29.75,SSW,213,12.0,16.0,74,0.00,,---,0.49,121.00,VWS V14.01,2013-03-21 00:28:00,
2013-03-20 17:30:00,47.5,40.0,29.75,SE,143,10.0,15.0,75,0.00,,---,0.49,83.00,VWS V14.01,2013-03-21 00:30:00,
2013-03-20 17:33:00,47.3,39.8,29.75,South,181,12.0,18.0,75,0.00,,---,0.49,188.00,VWS V14.01,2013-03-21 00:33:00,
2013-03-20 17:35:00,47.3,39.4,29.75,South,176,18.0,24.0,74,0.00,,---,0.49,128.00,VWS V14.01,2013-03-21 00:35:00,
2013-03-20 17:38:00,46.9,39.1,29.75,SSW,193,16.0,18.0,74,0.00,,---,0.49,127.00,VWS V14.01,2013-03-21 00:38:00,
2013-03-20 17:40:00,47.0,39.5,29.75,SW,215,18.0,24.0,75,0.00,,---,0.49,65.00,VWS V14.01,2013-03-21 00:40:00,
2013-03-20 17:43:00,46.8,40.3,29.75,SW,234,15.0,17.0,78,0.00,,---,0.49,181.00,VWS V14.01,2013-03-21 00:43:00,
2013-03-20 17:45:00,46.7,39.9,29.75,SSW,208,4.0,18.0,77,0.00,,---,0.49,188.00,VWS V14.01,2013-03-21 00:45:00,
2013-03-20 17:48:00,46.5,39.7,29.76,South,180,10.0,19.0,77,0.00,,---,0.49,160.00,VWS V14.01,2013-03-21 00:48:00,
2013-03-20 17:50:00,46.5,39.3,29.76,South,173,14.0,22.0,76,0.00,,---,0.49,216.00,VWS V14.01,2013-03-21 00:50:00,
2013-03-20 17:53:00,46.0,39.5,29.76,South,190,13.0,14.0,78,0.00,,---,0.49,229.00,VWS V14.01,2013-03-21 00:53:00,
2013-03-20 17:55:00,46.0,39.5,29.76,SSE,150,9.0,20.0,78,0.00,,---,0.49,234.00,VWS V14.01,2013-03-21 00:55:00,
2013-03-20 17:58:00,46.1,39.6,29.76,SSW,196,13.0,18.0,78,0.00,,---,0.49,190.00,VWS V14.01,2013-03-21 00:58:00,
2013-03-20 18:00:00,46.1,39.3,29.76,South,190,18.0,21.0,77,0.00,,---,0.49,195.00,VWS V14.01,2013-03-21 01:00:00,
2013-03-20 18:03:00,45.8,39.3,29.77,SSW,197,15.0,23.0,78,0.00,,---,0.49,70.00,VWS V14.01,2013-03-21 01:03:00,
2013-03-20 18:05:00,45.9,39.4,29.77,SSW,196,8.0,23.0,78,0.00,,---,0.49,69.00,VWS V14.01,2013-03-21 01:05:00,
2013-03-20 18:08:00,45.5,38.7,29.78,SSW,211,8.0,15.0,77,0.00,,---,0.49,60.00,VWS V14.01,2013-03-21 01:08:00,
2013-03-20 18:10:00,45.6,38.8,29.78,SW,228,13.0,23.0,77,0.00,,---,0.49,65.00,VWS V14.01,2013-03-21 01:10:00,
2013-03-20 18:13:00,45.4,39.0,29.78,SSW,209,9.0,12.0,78,0.00,,---,0.49,58.00,VWS V14.01,2013-03-21 01:13:00,
2013-03-20 18:15:00,45.4,39.0,29.78,WSW,249,6.0,20.0,78,0.00,,---,0.49,56.00,VWS V14.01,2013-03-21 01:15:00,
2013-03-20 18:18:00,45.2,38.8,29.79,WSW,242,9.0,15.0,78,0.00,,---,0.49,49.00,VWS V14.01,2013-03-21 01:18:00,
2013-03-20 18:20:00,45.3,38.9,29.79,WSW,240,10.0,14.0,78,0.00,,---,0.49,51.00,VWS V14.01,2013-03-21 01:20:00,
2013-03-20 18:23:00,45.1,38.7,29.79,SSW,196,8.0,13.0,78,0.00,,---,0.49,53.00,VWS V14.01,2013-03-21 01:23:00,
2013-03-20 18:25:00,45.2,38.8,29.79,SSW,194,11.0,15.0,78,0.00,,---,0.49,53.00,VWS V14.01,2013-03-21 01:25:00,
2013-03-20 18:28:00,45.2,38.4,29.79,SSW,199,9.0,19.0,77,0.00,,---,0.49,58.00,VWS V14.01,2013-03-21 01:28:00,
2013-03-20 18:30:00,45.2,38.4,29.80,South,176,17.0,21.0,77,0.00,,---,0.49,60.00,VWS V14.01,2013-03-21 01:30:00,
2013-03-20 18:33:00,45.1,38.3,29.80,South,191,15.0,15.0,77,0.00,,---,0.49,49.00,VWS V14.01,2013-03-21 01:33:00,
2013-03-20 18:35:00,45.1,38.7,29.80,SSW,201,11.0,19.0,78,0.00,,---,0.49,51.00,VWS V14.01,2013-03-21 01:35:00,
2013-03-20 18:38:00,45.1,38.3,29.80,SW,234,9.0,11.0,77,0.00,,---,0.49,42.00,VWS V14.01,2013-03-21 01:38:00,
2013-03-20 18:40:00,45.1,38.3,29.81,SW,233,9.0,15.0,77,0.00,,---,0.49,46.00,VWS V14.01,2013-03-21 01:40:00,
2013-03-20 18:43:00,45.2,38.8,29.81,SW,236,4.0,11.0,78,0.00,,---,0.49,53.00,VWS V14.01,2013-03-21 01:43:00,
2013-03-20 18:45:00,45.2,38.8,29.81,SW,231,8.0,11.0,78,0.00,,---,0.49,49.00,VWS V14.01,2013-03-21 01:45:00,
2013-03-20 18:48:00,45.1,38.7,29.81,SSW,213,7.0,13.0,78,0.00,,---,0.49,65.00,VWS V14.01,2013-03-21 01:48:00,
2013-03-20 18:50:00,45.1,38.3,29.81,South,191,13.0,18.0,77,0.00,,---,0.49,65.00,VWS V14.01,2013-03-21 01:50:00,
2013-03-20 18:53:00,44.7,38.6,29.81,SSW,202,11.0,16.0,79,0.00,,---,0.49,40.00,VWS V14.01,2013-03-21 01:53:00,
2013-03-20 18:55:00,44.8,38.4,29.81,South,171,12.0,23.0,78,0.00,,---,0.49,42.00,VWS V14.01,2013-03-21 01:55:00,
2013-03-20 18:58:00,44.4,38.3,29.82,SW,226,12.0,13.0,79,0.00,,---,0.49,33.00,VWS V14.01,2013-03-21 01:58:00,
2013-03-20 19:00:00,44.5,38.4,29.81,SSW,194,7.0,18.0,79,0.00,,---,0.49,35.00,VWS V14.01,2013-03-21 02:00:00,
2013-03-20 19:03:00,44.2,37.8,29.82,SW,217,10.0,13.0,78,0.00,,---,0.49,21.00,VWS V14.01,2013-03-21 02:03:00,
2013-03-20 19:05:00,44.2,37.8,29.82,SW,223,11.0,23.0,78,0.00,,---,0.49,23.00,VWS V14.01,2013-03-21 02:05:00,
2013-03-20 19:08:00,43.9,37.5,29.82,SSW,192,10.0,11.0,78,0.00,,---,0.49,16.00,VWS V14.01,2013-03-21 02:08:00,
2013-03-20 19:10:00,44.0,37.3,29.82,West,264,10.0,21.0,77,0.00,,---,0.49,16.00,VWS V14.01,2013-03-21 02:10:00,
2013-03-20 19:13:00,43.7,37.0,29.83,South,186,14.0,15.0,77,0.00,,---,0.49,12.00,VWS V14.01,2013-03-21 02:13:00,
2013-03-20 19:15:00,43.8,37.1,29.83,SSW,206,10.0,16.0,77,0.00,,---,0.49,12.00,VWS V14.01,2013-03-21 02:15:00,
2013-03-20 19:18:00,43.6,36.9,29.83,SSW,198,9.0,12.0,77,0.00,,---,0.49,7.00,VWS V14.01,2013-03-21 02:18:00,
2013-03-20 19:20:00,43.6,36.9,29.83,WSW,237,12.0,24.0,77,0.00,,---,0.49,9.00,VWS V14.01,2013-03-21 02:20:00,
2013-03-20 19:23:00,43.4,36.7,29.84,South,184,8.0,13.0,77,0.00,,---,0.49,5.00,VWS V14.01,2013-03-21 02:23:00,
2013-03-20 19:25:00,43.4,36.7,29.84,SW,219,11.0,16.0,77,0.00,,---,0.49,5.00,VWS V14.01,2013-03-21 02:25:00,
2013-03-20 19:28:00,43.2,36.5,29.84,South,186,7.0,19.0,77,0.00,,---,0.49,0.00,VWS V14.01,2013-03-21 02:28:00,
2013-03-20 19:30:00,43.3,36.6,29.84,SW,226,18.0,18.0,77,0.00,,---,0.49,0.00,VWS V14.01,2013-03-21 02:30:00,
2013-03-20 19:33:00,43.1,36.1,29.85,WSW,250,6.0,15.0,76,0.00,,---,0.49,0.00,VWS V14.01,2013-03-21 02:33:00,
2013-03-20 19:35:00,43.1,36.4,29.84,SW,233,7.0,19.0,77,0.00,,---,0.49,0.00,VWS V14.01,2013-03-21 02:35:00,
2013-03-20 19:38:00,42.8,35.8,29.85,SSW,213,11.0,20.0,76,0.00,,---,0.49,0.00,VWS V14.01,2013-03-21 02:38:00,
2013-03-20 19:40:00,42.9,35.9,29.85,SW,236,13.0,20.0,76,0.00,,---,0.49,0.00,VWS V14.01,2013-03-21 02:40:00,
2013-03-20 19:43:00,42.7,36.0,29.85,SSW,194,9.0,18.0,77,0.00,,---,0.49,0.00,VWS V14.01,2013-03-21 02:43:00,
2013-03-20 19:45:00,42.7,35.7,29.85,SE,138,9.0,20.0,76,0.00,,---,0.49,0.00,VWS V14.01,2013-03-21 02:45:00,
2013-03-20 19:48:00,42.4,35.7,29.85,WSW,244,11.0,11.0,77,0.00,,---,0.49,0.00,VWS V14.01,2013-03-21 02:48:00,
2013-03-20 19:50:00,42.5,35.8,29.85,SSW,207,8.0,18.0,77,0.00,,---,0.49,0.00,VWS V14.01,2013-03-21 02:50:00,
2013-03-20 19:53:00,42.3,35.3,29.86,WSW,244,17.0,18.0,76,0.00,,---,0.49,0.00,VWS V14.01,2013-03-21 02:53:00,
2013-03-20 19:55:00,42.4,35.4,29.86,SSW,192,13.0,19.0,76,0.00,,---,0.49,0.00,VWS V14.01,2013-03-21 02:55:00,
2013-03-20 19:58:00,42.2,35.5,29.85,South,173,12.0,14.0,77,0.00,,---,0.49,0.00,VWS V14.01,2013-03-21 02:58:00,
2013-03-20 20:00:00,42.2,35.5,29.85,SW,227,10.0,18.0,77,0.00,,---,0.49,0.00,VWS V14.01,2013-03-21 03:00:00,
2013-03-20 20:03:00,42.1,35.4,29.86,SSW,212,7.0,17.0,77,0.00,,---,0.49,0.00,VWS V14.01,2013-03-21 03:03:00,
2013-03-20 20:05:00,42.1,35.4,29.85,SSW,202,17.0,21.0,77,0.00,,---,0.49,0.00,VWS V14.01,2013-03-21 03:05:00,
2013-03-20 20:08:00,41.9,35.2,29.86,South,178,4.0,16.0,77,0.00,,---,0.49,0.00,VWS V14.01,2013-03-21 03:08:00,
2013-03-20 20:10:00,42.0,35.3,29.86,South,173,16.0,17.0,77,0.00,,---,0.49,0.00,VWS V14.01,2013-03-21 03:10:00,
2013-03-20 20:13:00,41.8,35.1,29.88,SSW,196,20.0,25.0,77,0.00,,---,0.49,0.00,VWS V14.01,2013-03-21 03:13:00,
2013-03-20 20:15:00,41.9,35.2,29.88,SSW,201,17.0,25.0,77,0.00,,---,0.49,0.00,VWS V14.01,2013-03-21 03:15:00,
2013-03-20 20:18:00,41.8,35.1,29.88,SW,220,13.0,18.0,77,0.00,,---,0.49,0.00,VWS V14.01,2013-03-21 03:18:00,
2013-03-20 20:20:00,41.8,35.1,29.88,SSW,201,15.0,25.0,77,0.00,,---,0.49,0.00,VWS V14.01,2013-03-21 03:20:00,
2013-03-20 20:23:00,41.6,34.9,29.89,South,185,10.0,10.0,77,0.00,,---,0.49,0.00,VWS V14.01,2013-03-21 03:23:00,
2013-03-20 20:25:00,41.6,34.9,29.89,South,188,9.0,29.0,77,0.00,,---,0.49,0.00,VWS V14.01,2013-03-21 03:25:00,
2013-03-20 20:28:00,41.5,35.2,29.90,SW,216,14.0,16.0,78,0.00,,---,0.49,0.00,VWS V14.01,2013-03-21 03:28:00,
2013-03-20 20:30:00,41.5,35.2,29.89,South,189,4.0,19.0,78,0.00,,---,0.49,0.00,VWS V14.01,2013-03-21 03:30:00,
2013-03-20 20:33:00,41.3,35.0,29.90,WSW,257,3.0,10.0,78,0.00,,---,0.49,0.00,VWS V14.01,2013-03-21 03:33:00,
2013-03-20 20:35:00,41.3,35.0,29.90,SW,222,7.0,16.0,78,0.00,,---,0.49,0.00,VWS V14.01,2013-03-21 03:35:00,
2013-03-20 20:38:00,41.3,35.0,29.91,SSW,198,8.0,14.0,78,0.00,,---,0.49,0.00,VWS V14.01,2013-03-21 03:38:00,
2013-03-20 20:40:00,41.3,35.3,29.91,SW,215,10.0,16.0,79,0.00,,---,0.49,0.00,VWS V14.01,2013-03-21 03:40:00,
2013-03-20 20:43:00,41.4,35.1,29.91,SSW,205,7.0,9.0,78,0.00,,---,0.49,0.00,VWS V14.01,2013-03-21 03:43:00,
2013-03-20 20:45:00,41.4,35.1,29.91,WSW,257,6.0,14.0,78,0.00,,---,0.49,0.00,VWS V14.01,2013-03-21 03:45:00,
2013-03-20 20:48:00,41.4,35.1,29.91,SW,229,7.0,9.0,78,0.00,,---,0.49,0.00,VWS V14.01,2013-03-21 03:48:00,
2013-03-20 20:50:00,41.4,35.1,29.91,SW,221,7.0,16.0,78,0.00,,---,0.49,0.00,VWS V14.01,2013-03-21 03:50:00,
2013-03-20 20:53:00,41.5,35.5,29.92,SW,225,11.0,11.0,79,0.00,,---,0.49,0.00,VWS V14.01,2013-03-21 03:53:00,
2013-03-20 20:55:00,41.5,35.2,29.92,SSW,195,3.0,13.0,78,0.00,,---,0.49,0.00,VWS V14.01,2013-03-21 03:55:00,
2013-03-20 20:58:00,41.5,35.2,29.92,SSW,194,7.0,12.0,78,0.00,,---,0.49,0.00,VWS V14.01,2013-03-21 03:58:00,
2013-03-20 21:00:00,41.5,35.2,29.93,SSW,199,7.0,15.0,78,0.00,,---,0.49,0.00,VWS V14.01,2013-03-21 04:00:00,
2013-03-20 21:05:00,41.6,34.9,29.94,SSW,209,7.0,12.0,77,0.00,,---,0.49,0.00,VWS V14.01,2013-03-21 04:05:00,
2013-03-20 21:10:00,41.6,34.9,29.95,SSW,210,8.0,13.0,77,0.00,,---,0.49,0.00,VWS V14.01,2013-03-21 04:10:00,
2013-03-20 21:15:00,41.6,34.6,29.95,WSW,238,8.0,15.0,76,0.00,,---,0.49,0.00,VWS V14.01,2013-03-21 04:15:00,
2013-03-20 21:20:00,41.5,34.5,29.95,SW,221,10.0,12.0,76,0.00,,---,0.49,0.00,VWS V14.01,2013-03-21 04:20:00,
2013-03-20 21:25:00,41.5,34.5,29.96,SW,230,3.0,12.0,76,0.00,,---,0.49,0.00,VWS V14.01,2013-03-21 04:25:00,
2013-03-20 21:30:00,41.4,34.4,29.96,South,189,13.0,13.0,76,0.00,,---,0.49,0.00,VWS V14.01,2013-03-21 04:30:00,
2013-03-20 21:35:00,41.3,34.7,29.97,SW,232,12.0,14.0,77,0.00,,---,0.49,0.00,VWS V14.01,2013-03-21 04:35:00,
2013-03-20 21:40:00,41.3,34.3,29.97,SSW,212,7.0,11.0,76,0.00,,---,0.49,0.00,VWS V14.01,2013-03-21 04:40:00,
2013-03-20 21:45:00,41.2,34.2,29.98,SW,222,8.0,10.0,76,0.00,,---,0.49,0.00,VWS V14.01,2013-03-21 04:45:00,
2013-03-20 21:50:00,41.2,34.2,29.99,SSW,209,5.0,9.0,76,0.00,,---,0.49,0.00,VWS V14.01,2013-03-21 04:50:00,
2013-03-20 21:55:00,41.2,33.9,29.99,SW,232,8.0,11.0,75,0.00,,---,0.49,0.00,VWS V14.01,2013-03-21 04:55:00,
2013-03-20 22:00:00,41.1,33.8,29.99,SSW,208,8.0,9.0,75,0.00,,---,0.49,0.00,VWS V14.01,2013-03-21 05:00:00,
2013-03-20 22:05:00,41.0,34.0,30.00,SSW,193,6.0,9.0,76,0.00,,---,0.49,0.00,VWS V14.01,2013-03-21 05:05:00,
2013-03-20 22:10:00,40.9,33.9,30.00,SSW,210,5.0,9.0,76,0.00,,---,0.49,0.00,VWS V14.01,2013-03-21 05:10:00,
2013-03-20 22:15:00,40.8,33.8,30.00,West,261,3.0,7.0,76,0.00,,---,0.49,0.00,VWS V14.01,2013-03-21 05:15:00,
2013-03-20 22:20:00,40.7,33.7,30.00,West,270,2.0,8.0,76,0.00,,---,0.49,0.00,VWS V14.01,2013-03-21 05:20:00,
2013-03-20 22:25:00,40.6,34.0,30.01,SSW,195,7.0,8.0,77,0.00,,---,0.49,0.00,VWS V14.01,2013-03-21 05:25:00,
2013-03-20 22:30:00,40.6,33.6,30.01,WSW,239,5.0,9.0,76,0.00,,---,0.49,0.00,VWS V14.01,2013-03-21 05:30:00,
2013-03-20 22:35:00,40.6,33.6,30.01,South,189,4.0,9.0,76,0.00,,---,0.49,0.00,VWS V14.01,2013-03-21 05:35:00,
2013-03-20 22:40:00,40.5,33.9,30.01,SSW,210,3.0,8.0,77,0.00,,---,0.49,0.00,VWS V14.01,2013-03-21 05:40:00,
2013-03-20 22:45:00,40.5,33.9,30.02,SW,227,6.0,8.0,77,0.00,,---,0.49,0.00,VWS V14.01,2013-03-21 05:45:00,
2013-03-20 22:50:00,40.4,34.1,30.02,WSW,246,9.0,11.0,78,0.00,,---,0.49,0.00,VWS V14.01,2013-03-21 05:50:00,
2013-03-20 22:55:00,40.4,34.1,30.02,SSW,209,11.0,11.0,78,0.00,,---,0.49,0.00,VWS V14.01,2013-03-21 05:55:00,
2013-03-20 23:00:00,40.3,34.0,30.02,South,186,5.0,7.0,78,0.00,,---,0.49,0.00,VWS V14.01,2013-03-21 06:00:00,
2013-03-20 23:05:00,40.3,34.0,30.02,South,187,7.0,8.0,78,0.00,,---,0.49,0.00,VWS V14.01,2013-03-21 06:05:00,
2013-03-20 23:10:00,40.2,34.2,30.02,South,175,6.0,8.0,79,0.00,,---,0.49,0.00,VWS V14.01,2013-03-21 06:10:00,
2013-03-20 23:15:00,40.1,34.1,30.03,SW,217,7.0,10.0,79,0.00,,---,0.49,0.00,VWS V14.01,2013-03-21 06:15:00,
2013-03-20 23:20:00,40.1,34.1,30.03,SW,226,6.0,11.0,79,0.00,,---,0.49,0.00,VWS V14.01,2013-03-21 06:20:00,
2013-03-20 23:25:00,40.0,34.0,30.03,SSW,193,6.0,10.0,79,0.00,,---,0.49,0.00,VWS V14.01,2013-03-21 06:25:00,
2013-03-20 23:30:00,39.9,33.9,30.04,South,191,5.0,11.0,79,0.00,,---,0.49,0.00,VWS V14.01,2013-03-21 06:30:00,
2013-03-20 23:35:00,39.7,33.7,30.04,SW,217,4.0,12.0,79,0.00,,---,0.49,0.00,VWS V14.01,2013-03-21 06:35:00,
2013-03-20 23:40:00,39.5,33.5,30.04,SSW,209,3.0,9.0,79,0.00,,---,0.49,0.00,VWS V14.01,2013-03-21 06:40:00,
2013-03-20 23:45:00,39.2,33.6,30.04,South,189,5.0,7.0,80,0.00,,---,0.49,0.00,VWS V14.01,2013-03-21 06:45:00,
2013-03-20 23:50:00,39.1,33.8,30.04,SSW,199,7.0,9.0,81,0.00,,---,0.49,0.00,VWS V14.01,2013-03-21 06:50:00,
2013-03-20 23:55:00,39.3,33.7,30.04,South,190,4.0,9.0,80,0.00,,---,0.49,0.00,VWS V14.01,2013-03-21 06:55:00,